createdAt,value
2019-05-02T00:01:46.036Z,7.90
2019-05-02T00:04:51.070Z,7.37
2019-05-02T00:07:58.547Z,7.90
2019-05-02T00:11:02.796Z,7.97
2019-05-02T00:14:06.915Z,8.50
2019-05-02T00:17:11.625Z,8.37
2019-05-02T00:20:21.278Z,7.70
2019-05-02T00:23:27.908Z,7.47
2019-05-02T00:26:29.412Z,7.43
2019-05-02T00:29:33.355Z,8.17
2019-05-02T00:32:37.204Z,6.80
2019-05-02T00:35:46.004Z,8.43
2019-05-02T00:38:47.070Z,7.37
2019-05-02T00:41:50.952Z,7.40
2019-05-02T00:44:54.891Z,7.53
2019-05-02T00:48:07.510Z,8.00
2019-05-02T00:51:11.332Z,7.80
2019-05-02T00:54:19.255Z,7.47
2019-05-02T00:57:21.771Z,7.83
2019-05-02T01:00:25.872Z,7.27
2019-05-02T01:03:32.109Z,7.00
2019-05-02T01:06:36.225Z,7.63
2019-05-02T01:09:45.014Z,7.47
2019-05-02T01:12:46.265Z,7.13
2019-05-02T01:15:50.025Z,7.97
2019-05-02T01:18:53.946Z,8.00
2019-05-02T01:21:58.078Z,8.13
2019-05-02T01:25:02.031Z,8.03
2019-05-02T01:28:17.521Z,7.70
2019-05-02T01:31:30.282Z,8.40
2019-05-02T01:34:43.491Z,7.97
2019-05-02T01:38:15.769Z,8.40
2019-05-02T01:41:24.033Z,8.40
2019-05-02T01:44:25.734Z,8.17
2019-05-02T01:47:34.197Z,7.97
2019-05-02T01:50:35.274Z,7.43
2019-05-02T01:53:39.419Z,8.10
2019-05-02T01:56:43.383Z,8.30
2019-05-02T01:59:47.831Z,7.63
2019-05-02T02:02:52.002Z,8.00
2019-05-02T02:05:56.155Z,7.97
2019-05-02T02:09:03.280Z,7.60
2019-05-02T02:12:09.963Z,7.77
2019-05-02T02:15:11.741Z,7.97
2019-05-02T02:18:16.738Z,8.17
2019-05-02T02:21:36.734Z,7.87
2019-05-02T02:24:55.892Z,8.03
2019-05-02T02:27:59.658Z,8.47
2019-05-02T02:31:04.791Z,8.07
2019-05-02T02:34:09.792Z,8.37
2019-05-02T02:37:15.168Z,8.13
2019-05-02T02:40:19.411Z,8.37
2019-05-02T02:43:34.286Z,7.80
2019-05-02T02:46:37.744Z,8.20
2019-05-02T02:49:37.818Z,8.07
2019-05-02T02:52:44.754Z,7.97
2019-05-02T02:55:47.151Z,7.53
2019-05-02T02:58:51.038Z,8.73
2019-05-02T03:01:55.233Z,7.97
2019-05-02T03:04:59.235Z,8.23
2019-05-02T03:08:05.399Z,7.47
2019-05-02T03:11:10.937Z,7.87
2019-05-02T03:14:22.924Z,7.70
2019-05-02T03:17:28.707Z,7.90
2019-05-02T03:20:40.095Z,8.77
2019-05-02T03:23:38.500Z,8.27
2019-05-02T03:26:48.770Z,8.07
2019-05-02T03:29:49.335Z,8.40
2019-05-02T03:33:05.978Z,7.20
2019-05-02T03:35:59.181Z,7.53
2019-05-02T03:39:13.346Z,7.83
2019-05-02T03:42:09.363Z,8.30
2019-05-02T03:45:13.568Z,7.20
2019-05-02T03:48:24.954Z,7.70
2019-05-02T03:51:25.124Z,7.93
2019-05-02T03:54:29.613Z,7.60
2019-05-02T03:57:36.207Z,7.63
2019-05-02T04:00:39.317Z,7.33
2019-05-02T04:03:43.851Z,8.20
2019-05-02T04:06:48.079Z,7.70
2019-05-02T04:09:52.109Z,7.70
2019-05-02T04:12:58.351Z,8.20
2019-05-02T04:16:14.322Z,8.30
2019-05-02T04:19:08.849Z,8.27
2019-05-02T04:22:13.797Z,8.97
2019-05-02T04:25:18.834Z,9.17
2019-05-02T04:28:22.875Z,8.93
2019-05-02T04:31:31.442Z,8.93
2019-05-02T04:34:32.706Z,7.73
2019-05-02T04:37:40.913Z,8.87
2019-05-02T04:40:46.455Z,8.67
2019-05-02T04:43:55.916Z,8.53
2019-05-02T04:47:02.581Z,8.23
2019-05-02T04:50:07.714Z,8.50
2019-05-02T04:53:08.606Z,9.30
2019-05-02T04:56:13.315Z,8.70
2019-05-02T04:59:22.682Z,9.67
2019-05-02T05:02:34.668Z,9.47
2019-05-02T05:05:31.263Z,10.57
2019-05-02T05:08:34.954Z,9.47
2019-05-02T05:11:38.791Z,9.37
2019-05-02T05:14:43.478Z,9.40
2019-05-02T05:17:47.930Z,10.00
2019-05-02T05:20:54.282Z,10.63
2019-05-02T05:24:18.196Z,10.97
2019-05-02T05:27:23.111Z,11.87
2019-05-02T05:30:27.796Z,10.77
2019-05-02T05:33:32.003Z,11.80
2019-05-02T05:36:37.494Z,12.67
2019-05-02T05:39:43.036Z,12.40
2019-05-02T05:42:48.104Z,12.77
2019-05-02T05:45:56.410Z,13.53
2019-05-02T05:48:58.482Z,13.17
2019-05-02T05:52:03.823Z,14.70
2019-05-02T05:55:12.767Z,15.23
2019-05-02T05:58:15.760Z,15.10
2019-05-02T06:01:20.551Z,14.73
2019-05-02T06:04:30.257Z,16.53
2019-05-02T06:07:33.616Z,16.43
2019-05-02T06:10:39.045Z,15.97
2019-05-02T06:13:42.962Z,15.67
2019-05-02T06:16:51.779Z,14.67
2019-05-02T06:19:55.403Z,16.07
2019-05-02T06:23:00.006Z,14.90
2019-05-02T06:26:07.829Z,15.87
2019-05-02T06:29:13.035Z,16.23
2019-05-02T06:32:19.374Z,17.27
2019-05-02T06:35:22.480Z,16.13
2019-05-02T06:38:26.517Z,15.60
2019-05-02T06:41:30.353Z,16.00
2019-05-02T06:44:34.741Z,15.83
2019-05-02T06:47:41.657Z,17.77
2019-05-02T06:50:44.883Z,18.20
2019-05-02T06:53:49.076Z,18.17
2019-05-02T06:56:52.926Z,18.03
2019-05-02T06:59:56.825Z,17.63
2019-05-02T07:03:05.059Z,17.83
2019-05-02T07:06:07.815Z,17.73
2019-05-02T07:09:12.101Z,18.70
2019-05-02T07:12:16.779Z,18.97
2019-05-02T07:15:42.601Z,19.53
2019-05-02T07:18:50.324Z,18.77
2019-05-02T07:21:58.407Z,19.30
2019-05-02T07:25:02.083Z,18.93
2019-05-02T07:28:09.387Z,20.37
2019-05-02T07:31:13.753Z,20.53
2019-05-02T07:34:17.581Z,20.97
2019-05-02T07:37:21.795Z,22.30
2019-05-02T07:40:25.871Z,23.90
2019-05-02T07:43:29.669Z,22.10
2019-05-02T07:46:33.672Z,26.13
2019-05-02T07:49:37.712Z,23.83
2019-05-02T07:52:42.080Z,26.40
2019-05-02T07:55:48.929Z,26.37
2019-05-02T07:58:51.710Z,28.27
2019-05-02T08:01:55.745Z,29.30
2019-05-02T08:04:59.621Z,27.43
2019-05-02T08:08:03.956Z,26.70
2019-05-02T08:11:07.920Z,30.13
2019-05-02T08:14:11.716Z,29.73
2019-05-02T08:17:16.970Z,29.07
2019-05-02T08:20:21.382Z,30.30
2019-05-02T08:23:26.136Z,32.90
2019-05-02T08:26:53.437Z,34.40
2019-05-02T08:29:54.937Z,33.53
2019-05-02T08:32:58.823Z,36.30
2019-05-02T08:36:02.967Z,37.47
2019-05-02T08:39:07.661Z,38.60
2019-05-02T08:42:12.277Z,35.43
2019-05-02T08:45:16.531Z,35.27
2019-05-02T08:48:22.670Z,34.87
2019-05-02T08:51:27.029Z,35.10
2019-05-02T08:54:32.784Z,34.57
2019-05-02T08:57:37.015Z,34.87
2019-05-02T09:00:41.395Z,35.30
2019-05-02T09:04:00.522Z,34.80
2019-05-02T09:06:53.260Z,35.67
2019-05-02T09:10:00.293Z,35.97
2019-05-02T09:13:02.734Z,35.50
2019-05-02T09:16:06.676Z,36.63
2019-05-02T09:19:13.466Z,38.17
2019-05-02T09:22:17.035Z,35.20
2019-05-02T09:25:22.064Z,38.50
2019-05-02T09:28:25.905Z,37.43
2019-05-02T09:31:31.850Z,39.50
2019-05-02T09:34:35.856Z,42.17
2019-05-02T09:37:41.911Z,40.53
2019-05-02T09:40:47.235Z,41.53
2019-05-02T09:43:52.395Z,38.47
2019-05-02T09:46:57.167Z,39.37
2019-05-02T09:50:12.721Z,38.70
2019-05-02T09:53:20.758Z,37.87
2019-05-02T09:56:22.062Z,35.30
2019-05-02T09:59:33.490Z,37.33
2019-05-02T10:02:37.449Z,36.00
2019-05-02T10:05:43.084Z,36.53
2019-05-02T10:08:47.255Z,36.30
2019-05-02T10:11:52.575Z,33.73
2019-05-02T10:14:56.783Z,33.33
2019-05-02T10:18:08.836Z,32.10
2019-05-02T10:21:07.945Z,30.70
2019-05-02T10:24:12.721Z,33.03
2019-05-02T10:27:16.494Z,32.17
2019-05-02T10:30:22.535Z,33.57
2019-05-02T10:33:27.888Z,32.83
2019-05-02T10:36:33.137Z,34.37
2019-05-02T10:39:37.952Z,33.37
2019-05-02T10:42:42.619Z,34.40
2019-05-02T10:45:54.872Z,33.57
2019-05-02T10:49:01.988Z,29.67
2019-05-02T10:52:06.126Z,29.93
2019-05-02T10:55:10.361Z,30.20
2019-05-02T10:58:14.597Z,28.07
2019-05-02T11:01:21.919Z,30.73
2019-05-02T11:04:29.160Z,30.33
2019-05-02T11:07:32.657Z,29.17
2019-05-02T11:10:36.683Z,29.13
2019-05-02T11:14:01.128Z,24.93
2019-05-02T11:17:17.688Z,24.27
2019-05-02T11:20:19.683Z,22.60
2019-05-02T11:23:23.627Z,23.90
2019-05-02T11:26:27.748Z,23.73
2019-05-02T11:29:32.243Z,23.80
2019-05-02T11:32:36.607Z,22.73
2019-05-02T11:35:48.777Z,22.00
2019-05-02T11:38:53.094Z,22.43
2019-05-02T11:41:52.816Z,22.33
2019-05-02T11:44:56.617Z,21.80
2019-05-02T11:48:08.593Z,22.20
2019-05-02T11:51:07.375Z,21.13
2019-05-02T11:54:13.024Z,22.97
2019-05-02T11:57:22.127Z,22.80
2019-05-02T12:00:22.962Z,21.53
2019-05-02T12:03:35.779Z,20.47
2019-05-02T12:06:38.540Z,23.20
2019-05-02T12:09:45.629Z,22.93
2019-05-02T12:12:48.118Z,21.17
2019-05-02T12:15:52.141Z,21.93
2019-05-02T12:19:08.677Z,22.73
2019-05-02T12:22:02.759Z,21.30
2019-05-02T12:25:06.948Z,20.67
2019-05-02T12:28:12.041Z,20.73
2019-05-02T12:31:27.872Z,22.73
2019-05-02T12:34:32.631Z,20.47
2019-05-02T12:37:36.441Z,20.77
2019-05-02T12:40:42.049Z,19.23
2019-05-02T12:43:46.397Z,21.20
2019-05-02T12:46:51.758Z,20.27
2019-05-02T12:49:55.716Z,17.90
2019-05-02T12:52:59.540Z,18.33
2019-05-02T12:56:03.725Z,17.23
2019-05-02T12:59:07.631Z,16.73
2019-05-02T13:02:17.810Z,17.77
2019-05-02T13:05:22.255Z,17.13
2019-05-02T13:08:26.182Z,17.83
2019-05-02T13:11:45.715Z,16.13
2019-05-02T13:14:47.441Z,15.40
2019-05-02T13:17:52.093Z,14.77
2019-05-02T13:20:58.879Z,12.93
2019-05-02T13:24:34.064Z,11.90
2019-05-02T13:27:47.497Z,11.90
2019-05-02T13:30:58.153Z,13.40
2019-05-02T13:34:17.064Z,11.70
2019-05-02T13:37:22.553Z,9.70
2019-05-02T13:40:42.262Z,8.13
2019-05-02T13:43:47.765Z,8.20
2019-05-02T13:46:53.593Z,8.93
2019-05-02T13:50:00.898Z,8.30
2019-05-02T13:53:03.991Z,8.23
2019-05-02T13:56:46.057Z,7.77
2019-05-02T13:59:50.063Z,8.07
2019-05-02T14:02:54.100Z,7.90
2019-05-02T14:05:57.985Z,6.97
2019-05-02T14:09:20.599Z,8.03
2019-05-02T14:12:54.036Z,7.20
2019-05-02T14:15:57.979Z,6.70
2019-05-02T14:19:05.522Z,6.37
2019-05-02T14:22:09.409Z,7.20
2019-05-02T14:25:13.629Z,6.53
2019-05-02T14:28:17.486Z,7.23
2019-05-02T14:31:21.774Z,7.87
2019-05-02T14:34:44.591Z,6.73
2019-05-02T14:38:08.091Z,7.43
2019-05-02T14:41:13.669Z,6.70
2019-05-02T14:44:18.105Z,7.37
2019-05-02T14:47:23.420Z,7.47
2019-05-02T14:50:27.249Z,8.10
2019-05-02T14:53:32.031Z,9.13
2019-05-02T14:57:02.168Z,10.50
2019-05-02T15:00:08.247Z,9.83
2019-05-02T15:03:12.887Z,10.70
2019-05-02T15:06:17.222Z,10.37
2019-05-02T15:09:26.351Z,11.00
2019-05-02T15:12:27.423Z,12.00
2019-05-02T15:15:33.573Z,11.50
2019-05-02T15:18:37.369Z,11.23
2019-05-02T15:21:46.901Z,10.23
2019-05-02T15:24:49.894Z,11.33
2019-05-02T15:27:58.265Z,10.93
2019-05-02T15:31:06.484Z,12.77
2019-05-02T15:34:18.166Z,12.50
2019-05-02T15:37:25.689Z,12.17
2019-05-02T15:43:33.177Z,13.27
2019-05-02T15:46:40.120Z,12.33
2019-05-02T15:49:46.657Z,11.60
2019-05-02T15:52:57.183Z,11.90
2019-05-02T15:56:02.112Z,11.97
2019-05-02T15:59:06.507Z,12.50
2019-05-02T16:02:17.605Z,10.83
2019-05-02T16:05:22.180Z,11.33
2019-05-02T16:08:27.843Z,11.87
2019-05-02T16:11:32.232Z,8.10
2019-05-02T16:14:36.323Z,9.17
2019-05-02T16:17:42.210Z,9.77
2019-05-02T16:21:04.893Z,7.87
2019-05-02T16:24:19.465Z,9.87
2019-05-02T16:27:44.383Z,8.70
2019-05-02T16:30:50.079Z,8.93
2019-05-02T16:33:57.387Z,8.63
2019-05-02T16:37:13.621Z,10.73
2019-05-02T16:40:23.872Z,11.27
2019-05-02T16:43:26.296Z,11.80
2019-05-02T16:46:32.235Z,11.27
2019-05-02T16:49:36.515Z,11.50
2019-05-02T16:52:43.817Z,12.30
2019-05-02T16:55:46.912Z,13.20
2019-05-02T16:58:52.203Z,13.07
2019-05-02T17:01:59.595Z,13.23
2019-05-02T17:05:08.312Z,14.20
2019-05-02T17:08:33.225Z,13.97
2019-05-02T17:11:41.879Z,13.73
2019-05-02T17:15:04.570Z,13.00
2019-05-02T17:18:14.646Z,13.17
2019-05-02T17:21:15.088Z,12.30
2019-05-02T17:24:22.652Z,12.37
2019-05-02T17:27:24.887Z,12.80
2019-05-02T17:30:33.722Z,11.60
2019-05-02T17:33:34.504Z,10.83
2019-05-02T17:36:38.417Z,12.10
2019-05-02T17:39:46.088Z,12.50
2019-05-02T17:42:48.995Z,12.83
2019-05-02T17:45:53.050Z,12.97
2019-05-02T17:48:57.231Z,11.90
2019-05-02T17:52:24.445Z,11.30
2019-05-02T17:55:24.517Z,11.13
2019-05-02T17:58:28.644Z,12.37
2019-05-02T18:01:36.479Z,11.57
2019-05-02T18:04:41.939Z,11.77
2019-05-02T18:07:45.942Z,11.23
2019-05-02T18:10:50.689Z,12.07
2019-05-02T18:13:55.773Z,12.67
2019-05-02T18:16:59.677Z,13.13
2019-05-02T18:20:06.785Z,13.43
2019-05-02T18:23:12.224Z,12.77
2019-05-02T18:26:16.198Z,14.30
2019-05-02T18:29:20.067Z,15.03
2019-05-02T18:32:26.111Z,14.77
2019-05-02T18:35:30.024Z,14.90
2019-05-02T18:38:34.086Z,15.53
2019-05-02T18:41:42.732Z,17.20
2019-05-02T18:44:48.211Z,16.37
2019-05-02T18:47:55.399Z,18.37
2019-05-02T18:50:57.234Z,19.67
2019-05-02T18:54:04.583Z,21.13
2019-05-02T18:57:07.292Z,20.97
2019-05-02T19:00:12.175Z,22.13
2019-05-02T19:03:17.277Z,21.57
2019-05-02T19:06:22.047Z,22.97
2019-05-02T19:09:30.110Z,23.33
2019-05-02T19:12:32.822Z,23.23
2019-05-02T19:15:39.638Z,23.77
2019-05-02T19:18:42.934Z,23.60
2019-05-02T19:21:47.038Z,22.93
2019-05-02T19:24:52.352Z,22.97
2019-05-02T19:28:08.352Z,22.80
2019-05-02T19:31:12.664Z,22.67
2019-05-02T19:34:24.725Z,20.00
2019-05-02T19:37:22.559Z,18.97
2019-05-02T19:40:28.326Z,18.60
2019-05-02T19:43:34.840Z,19.53
2019-05-02T19:46:39.045Z,16.57
2019-05-02T19:49:47.259Z,16.77
2019-05-02T19:53:00.826Z,16.03
2019-05-02T19:55:57.168Z,16.57
2019-05-02T19:59:02.715Z,17.60
2019-05-02T20:02:06.760Z,17.00
2019-05-02T20:05:11.827Z,18.53
2019-05-02T20:08:21.457Z,20.50
2019-05-02T20:11:22.186Z,23.87
2019-05-02T20:14:26.080Z,24.10
2019-05-02T20:17:29.989Z,25.40
2019-05-02T20:20:43.763Z,21.77
2019-05-02T20:23:48.416Z,25.23
2019-05-02T20:26:56.114Z,23.87
2019-05-02T20:29:58.112Z,24.70
2019-05-02T20:33:05.037Z,24.37
2019-05-02T20:36:07.932Z,24.60
2019-05-02T20:39:12.236Z,25.50
2019-05-02T20:42:16.401Z,23.97
2019-05-02T20:45:20.326Z,25.90
2019-05-02T20:48:24.217Z,24.73
2019-05-02T20:51:29.035Z,25.83
2019-05-02T20:54:33.261Z,26.17
2019-05-02T20:57:37.527Z,24.70
2019-05-02T21:00:42.693Z,25.00
2019-05-02T21:03:46.740Z,24.43
2019-05-02T21:06:57.039Z,24.97
2019-05-02T21:10:06.155Z,25.23
2019-05-02T21:13:10.051Z,24.97
2019-05-02T21:16:13.934Z,25.33
2019-05-02T21:19:17.810Z,25.17
2019-05-02T21:22:25.669Z,25.33
2019-05-02T21:25:29.901Z,25.50
2019-05-02T21:28:33.773Z,26.53
2019-05-02T21:31:37.925Z,26.13
2019-05-02T21:34:42.509Z,25.77
2019-05-02T21:37:46.921Z,26.60
2019-05-02T21:40:52.546Z,26.20
2019-05-02T21:43:57.023Z,27.10
2019-05-02T21:47:02.880Z,26.77
2019-05-02T21:50:25.230Z,27.27
2019-05-02T21:53:56.054Z,28.20
2019-05-02T21:56:58.667Z,27.13
2019-05-02T22:00:02.739Z,28.03
2019-05-02T22:03:06.803Z,28.40
2019-05-02T22:06:12.236Z,28.10
2019-05-02T22:09:16.272Z,28.43
2019-05-02T22:12:22.414Z,29.50
2019-05-02T22:15:26.006Z,27.90
2019-05-02T22:18:32.168Z,30.27
2019-05-02T22:21:36.169Z,29.17
2019-05-02T22:24:42.000Z,30.33
2019-05-02T22:27:45.684Z,29.30
2019-05-02T22:30:49.544Z,30.63
2019-05-02T22:33:53.494Z,31.00
2019-05-02T22:36:57.660Z,29.50
2019-05-02T22:40:05.576Z,31.13
2019-05-02T22:43:09.512Z,30.60
2019-05-02T22:46:15.924Z,30.13
2019-05-02T22:49:19.830Z,30.87
2019-05-02T22:52:24.000Z,32.03
2019-05-02T22:55:27.837Z,31.63
2019-05-02T22:58:32.665Z,30.80
2019-05-02T23:01:37.005Z,30.17
2019-05-02T23:04:41.778Z,30.43
2019-05-02T23:07:45.841Z,31.60
2019-05-02T23:10:51.814Z,32.13
2019-05-02T23:13:56.479Z,32.50
2019-05-02T23:17:02.056Z,33.20
2019-05-02T23:20:06.548Z,33.67
2019-05-02T23:23:12.417Z,32.90
2019-05-02T23:26:37.286Z,32.43
2019-05-02T23:29:42.516Z,32.53
2019-05-02T23:32:46.735Z,33.73
2019-05-02T23:35:52.138Z,33.70
2019-05-02T23:38:56.472Z,33.60
2019-05-02T23:42:01.995Z,32.57
2019-05-02T23:45:06.448Z,32.00
2019-05-02T23:48:10.436Z,32.57
2019-05-02T23:51:14.342Z,33.10
2019-05-02T23:54:18.598Z,32.00
2019-05-02T23:57:23.055Z,29.80
